createdAt,value
2023-01-17T00:02:22.642Z,2.20
2023-01-17T00:05:08.023Z,2.10
2023-01-17T00:07:53.244Z,2.00
2023-01-17T00:10:19.731Z,1.90
2023-01-17T00:12:46.225Z,1.80
2023-01-17T00:15:12.744Z,1.80
2023-01-17T00:17:39.242Z,1.70
2023-01-17T00:20:24.703Z,1.70
2023-01-17T00:23:09.766Z,1.70
2023-01-17T00:25:55.218Z,1.80
2023-01-17T00:28:21.731Z,1.80
2023-01-17T00:30:50.188Z,1.90
2023-01-17T00:33:16.624Z,1.90
2023-01-17T00:35:43.077Z,1.90
2023-01-17T00:38:09.530Z,2.00
2023-01-17T00:40:36.061Z,2.00
2023-01-17T00:43:21.425Z,2.00
2023-01-17T00:46:06.729Z,2.00
2023-01-17T00:48:52.001Z,2.00
2023-01-17T00:51:37.305Z,2.00
2023-01-17T00:54:22.342Z,2.00
2023-01-17T00:57:07.442Z,2.10
2023-01-17T00:59:52.778Z,2.00
2023-01-17T01:02:38.330Z,2.00
2023-01-17T01:05:23.596Z,2.10
2023-01-17T01:08:08.548Z,2.10
2023-01-17T01:10:53.720Z,2.10
2023-01-17T01:13:38.997Z,2.10
2023-01-17T01:16:24.281Z,2.10
2023-01-17T01:19:09.634Z,2.10
2023-01-17T01:21:54.825Z,2.10
2023-01-17T01:24:39.909Z,2.20
2023-01-17T01:27:24.961Z,2.10
2023-01-17T01:30:10.017Z,2.10
2023-01-17T01:32:55.013Z,2.10
2023-01-17T01:35:21.499Z,2.10
2023-01-17T01:37:47.988Z,2.00
2023-01-17T01:40:14.471Z,2.00
2023-01-17T01:42:40.977Z,2.00
2023-01-17T01:45:07.439Z,1.90
2023-01-17T01:47:33.962Z,1.90
2023-01-17T01:50:00.431Z,1.90
2023-01-17T01:52:26.912Z,1.90
2023-01-17T01:54:53.427Z,1.90
2023-01-17T01:57:19.924Z,1.90
2023-01-17T01:59:46.416Z,1.90
2023-01-17T02:02:12.903Z,1.90
2023-01-17T02:04:39.514Z,1.90
2023-01-17T02:07:08.024Z,1.80
2023-01-17T02:09:34.484Z,1.80
2023-01-17T02:12:01.074Z,1.80
2023-01-17T02:14:27.573Z,1.80
2023-01-17T02:16:54.456Z,1.80
2023-01-17T02:19:20.951Z,1.80
2023-01-17T02:21:47.447Z,1.80
2023-01-17T02:24:13.961Z,1.70
2023-01-17T02:26:40.496Z,1.70
2023-01-17T02:29:07.223Z,1.60
2023-01-17T02:31:33.756Z,1.60
2023-01-17T02:34:00.241Z,1.50
2023-01-17T02:36:26.728Z,1.40
2023-01-17T02:38:53.245Z,1.40
2023-01-17T02:41:19.710Z,1.30
2023-01-17T02:43:46.206Z,1.20
2023-01-17T02:46:12.779Z,1.20
2023-01-17T02:48:39.382Z,1.20
2023-01-17T02:51:05.874Z,1.10
2023-01-17T02:53:32.351Z,1.10
2023-01-17T02:55:59.111Z,1.00
2023-01-17T02:58:25.640Z,1.00
2023-01-17T03:00:52.290Z,1.00
2023-01-17T03:03:18.896Z,1.00
2023-01-17T03:05:45.388Z,0.90
2023-01-17T03:08:12.667Z,0.90
2023-01-17T03:10:39.139Z,1.00
2023-01-17T03:13:05.723Z,1.00
2023-01-17T03:15:32.220Z,1.00
2023-01-17T03:17:58.710Z,1.00
2023-01-17T03:20:25.191Z,1.00
2023-01-17T03:22:51.700Z,1.00
2023-01-17T03:25:18.209Z,1.10
2023-01-17T03:27:44.710Z,1.10
2023-01-17T03:30:11.210Z,1.10
2023-01-17T03:32:37.737Z,1.10
2023-01-17T03:35:04.218Z,1.10
2023-01-17T03:37:30.740Z,1.10
2023-01-17T03:39:57.218Z,1.10
2023-01-17T03:42:23.715Z,1.00
2023-01-17T03:44:50.188Z,0.90
2023-01-17T03:47:16.674Z,0.80
2023-01-17T03:49:43.201Z,0.70
2023-01-17T03:52:09.756Z,0.60
2023-01-17T03:54:36.245Z,0.40
2023-01-17T03:57:02.755Z,0.30
2023-01-17T03:59:29.245Z,0.20
2023-01-17T04:01:55.828Z,0.20
2023-01-17T04:04:22.366Z,0.10
2023-01-17T04:06:48.906Z,0.00
2023-01-17T04:09:15.413Z,0.00
2023-01-17T04:11:41.903Z,0.00
2023-01-17T04:14:08.461Z,0.10
2023-01-17T04:16:35.041Z,0.10
2023-01-17T04:19:01.594Z,0.10
2023-01-17T04:21:28.091Z,0.10
2023-01-17T04:23:54.588Z,0.10
2023-01-17T04:26:21.109Z,0.10
2023-01-17T04:28:47.646Z,0.10
2023-01-17T04:31:14.260Z,0.10
2023-01-17T04:33:40.837Z,0.10
2023-01-17T04:36:07.316Z,0.10
2023-01-17T04:38:35.080Z,0.10
2023-01-17T04:41:01.604Z,0.10
2023-01-17T04:43:28.099Z,0.10
2023-01-17T04:45:54.754Z,0.10
2023-01-17T04:48:21.301Z,0.10
2023-01-17T04:50:47.815Z,0.10
2023-01-17T04:53:14.322Z,0.10
2023-01-17T04:55:40.858Z,0.10
2023-01-17T04:58:07.324Z,0.10
2023-01-17T05:00:33.805Z,0.10
2023-01-17T05:03:00.372Z,0.10
2023-01-17T05:05:27.081Z,0.10
2023-01-17T05:07:53.608Z,0.10
2023-01-17T05:10:20.134Z,0.10
2023-01-17T05:12:47.786Z,0.20
2023-01-17T05:15:14.373Z,0.10
2023-01-17T05:17:40.923Z,0.20
2023-01-17T05:20:08.484Z,0.20
2023-01-17T05:22:34.952Z,0.20
2023-01-17T05:25:01.472Z,0.20
2023-01-17T05:27:29.487Z,0.20
2023-01-17T05:29:55.981Z,0.20
2023-01-17T05:32:22.476Z,0.30
2023-01-17T05:34:48.967Z,0.30
2023-01-17T05:37:15.476Z,0.30
2023-01-17T05:39:42.019Z,0.30
2023-01-17T05:42:08.495Z,0.30
2023-01-17T05:44:35.032Z,0.30
2023-01-17T05:47:01.575Z,0.40
2023-01-17T05:49:28.095Z,0.30
2023-01-17T05:51:55.063Z,0.30
2023-01-17T05:54:21.651Z,0.40
2023-01-17T05:56:48.200Z,0.40
2023-01-17T05:59:14.819Z,0.40
2023-01-17T06:01:42.649Z,0.40
2023-01-17T06:04:09.231Z,0.40
2023-01-17T06:06:35.715Z,0.40
2023-01-17T06:09:02.201Z,0.40
2023-01-17T06:11:28.706Z,0.40
2023-01-17T06:13:55.194Z,0.40
2023-01-17T06:16:21.784Z,0.50
2023-01-17T06:18:48.274Z,0.50
2023-01-17T06:21:14.776Z,0.50
2023-01-17T06:23:41.252Z,0.40
2023-01-17T06:26:08.996Z,0.40
2023-01-17T06:28:35.483Z,0.40
2023-01-17T06:31:02.054Z,0.40
2023-01-17T06:33:28.594Z,0.40
2023-01-17T06:35:55.250Z,0.40
2023-01-17T06:38:21.817Z,0.40
2023-01-17T06:40:48.483Z,0.30
2023-01-17T06:43:14.991Z,0.30
2023-01-17T06:45:41.485Z,0.30
2023-01-17T06:48:07.990Z,0.30
2023-01-17T06:50:34.608Z,0.30
2023-01-17T06:53:01.686Z,0.30
2023-01-17T06:55:31.266Z,0.20
2023-01-17T06:57:59.261Z,0.20
2023-01-17T07:00:25.883Z,0.20
2023-01-17T07:02:52.421Z,0.20
2023-01-17T07:05:19.051Z,0.20
2023-01-17T07:07:45.692Z,0.10
2023-01-17T07:10:12.239Z,0.10
2023-01-17T07:12:38.776Z,0.10
2023-01-17T07:15:05.273Z,0.10
2023-01-17T07:17:31.768Z,0.10
2023-01-17T07:19:58.247Z,0.10
2023-01-17T07:22:24.743Z,0.10
2023-01-17T07:24:53.416Z,0.10
2023-01-17T07:27:19.927Z,0.10
2023-01-17T07:29:46.458Z,0.20
2023-01-17T07:32:13.014Z,0.10
2023-01-17T07:34:39.503Z,0.10
2023-01-17T07:37:06.215Z,0.20
2023-01-17T07:39:32.781Z,0.20
2023-01-17T07:41:59.308Z,0.20
2023-01-17T07:44:27.145Z,0.20
2023-01-17T07:46:53.730Z,0.30
2023-01-17T07:49:20.237Z,0.30
2023-01-17T07:51:46.729Z,0.30
2023-01-17T07:54:13.235Z,0.30
2023-01-17T07:56:39.998Z,0.30
2023-01-17T07:59:06.471Z,0.40
2023-01-17T08:01:33.086Z,0.30
2023-01-17T08:03:59.755Z,0.30
2023-01-17T08:06:26.574Z,0.30
2023-01-17T08:08:55.042Z,0.30
2023-01-17T08:11:21.551Z,0.30
2023-01-17T08:13:48.120Z,0.40
2023-01-17T08:16:15.265Z,0.40
2023-01-17T08:18:41.864Z,0.40
2023-01-17T08:21:08.507Z,0.40
2023-01-17T08:23:34.991Z,0.40
2023-01-17T08:26:01.578Z,0.50
2023-01-17T08:28:28.121Z,0.40
2023-01-17T08:30:54.679Z,0.40
2023-01-17T08:33:21.157Z,0.40
2023-01-17T08:35:47.663Z,0.50
2023-01-17T08:38:14.361Z,0.50
2023-01-17T08:40:41.155Z,0.70
2023-01-17T08:43:07.689Z,0.80
2023-01-17T08:45:34.204Z,0.90
2023-01-17T08:48:00.773Z,1.00
2023-01-17T08:50:27.338Z,1.10
2023-01-17T08:52:53.871Z,1.20
2023-01-17T08:55:20.417Z,1.20
2023-01-17T08:57:47.018Z,1.30
2023-01-17T09:00:13.495Z,1.30
2023-01-17T09:02:40.005Z,1.30
2023-01-17T09:05:06.582Z,1.30
2023-01-17T09:07:33.178Z,1.20
2023-01-17T09:09:59.658Z,1.10
2023-01-17T09:12:26.224Z,1.00
2023-01-17T09:14:52.734Z,1.00
2023-01-17T09:17:19.324Z,1.00
2023-01-17T09:19:48.907Z,1.00
2023-01-17T09:22:15.488Z,1.00
2023-01-17T09:24:42.100Z,1.00
2023-01-17T09:27:08.619Z,1.10
2023-01-17T09:29:35.151Z,1.00
2023-01-17T09:32:02.029Z,1.10
2023-01-17T09:34:28.519Z,1.10
2023-01-17T09:36:56.887Z,1.10
2023-01-17T09:39:23.415Z,1.10
2023-01-17T09:41:49.930Z,1.20
2023-01-17T09:44:16.457Z,1.30
2023-01-17T09:46:42.983Z,1.30
2023-01-17T09:49:09.499Z,1.30
2023-01-17T09:51:35.997Z,1.40
2023-01-17T09:54:02.500Z,1.40
2023-01-17T09:56:29.491Z,1.50
2023-01-17T09:58:56.003Z,1.60
2023-01-17T10:01:22.806Z,1.70
2023-01-17T10:03:49.442Z,1.70
2023-01-17T10:06:16.111Z,1.80
2023-01-17T10:08:42.685Z,1.80
2023-01-17T10:11:09.287Z,1.80
2023-01-17T10:13:36.034Z,1.80
2023-01-17T10:16:02.554Z,1.80
2023-01-17T10:18:30.408Z,1.80
2023-01-17T10:20:57.300Z,1.80
2023-01-17T10:23:25.104Z,1.80
2023-01-17T10:25:52.370Z,1.90
2023-01-17T10:28:18.863Z,1.90
2023-01-17T10:30:48.619Z,2.00
2023-01-17T10:33:15.474Z,2.10
2023-01-17T10:35:41.937Z,2.30
2023-01-17T10:38:08.508Z,2.30
2023-01-17T10:40:35.271Z,2.40
2023-01-17T10:43:01.755Z,2.40
2023-01-17T10:45:28.968Z,2.50
2023-01-17T10:47:55.725Z,2.60
2023-01-17T10:50:22.226Z,2.60
2023-01-17T10:52:48.815Z,2.70
2023-01-17T10:55:16.885Z,2.70
2023-01-17T10:57:43.419Z,2.70
2023-01-17T11:00:09.950Z,2.70
2023-01-17T11:02:36.655Z,3.00
2023-01-17T11:05:03.382Z,3.40
2023-01-17T11:07:29.925Z,4.00
2023-01-17T11:09:56.553Z,4.30
2023-01-17T11:12:23.040Z,4.70
2023-01-17T11:14:49.569Z,5.00
2023-01-17T11:17:16.058Z,5.00
2023-01-17T11:19:45.630Z,5.00
2023-01-17T11:22:12.154Z,4.80
2023-01-17T11:24:38.659Z,4.70
2023-01-17T11:27:05.456Z,4.60
2023-01-17T11:29:31.988Z,4.70
2023-01-17T11:31:58.637Z,4.80
2023-01-17T11:34:25.351Z,4.80
2023-01-17T11:36:51.851Z,4.70
2023-01-17T11:39:18.342Z,4.50
2023-01-17T11:41:44.883Z,4.20
2023-01-17T11:44:11.549Z,3.80
2023-01-17T11:46:38.908Z,3.50
2023-01-17T11:49:05.621Z,3.20
2023-01-17T11:51:32.196Z,3.00
2023-01-17T11:53:58.700Z,2.80
2023-01-17T11:56:25.300Z,2.70
2023-01-17T11:58:51.832Z,2.60
2023-01-17T12:01:18.360Z,2.50
2023-01-17T12:03:44.938Z,2.30
2023-01-17T12:06:11.719Z,2.10
2023-01-17T12:08:38.211Z,2.10
2023-01-17T12:11:04.731Z,2.00
2023-01-17T12:13:49.949Z,2.00
2023-01-17T12:16:31.378Z,2.10
2023-01-17T12:18:57.877Z,2.10
2023-01-17T12:21:24.457Z,2.20
2023-01-17T12:23:50.964Z,2.30
2023-01-17T12:26:20.879Z,2.40
2023-01-17T12:28:47.536Z,2.50
2023-01-17T12:31:14.074Z,2.40
2023-01-17T12:33:40.630Z,2.20
2023-01-17T12:36:07.461Z,2.10
2023-01-17T12:38:33.944Z,2.00
2023-01-17T12:41:00.583Z,1.90
2023-01-17T12:43:27.061Z,1.90
2023-01-17T12:45:57.515Z,1.80
2023-01-17T12:48:25.061Z,1.80
2023-01-17T12:50:51.577Z,2.00
2023-01-17T12:53:18.073Z,2.20
2023-01-17T12:55:44.582Z,2.40
2023-01-17T12:58:11.158Z,2.70
2023-01-17T13:00:37.695Z,3.10
2023-01-17T13:03:04.208Z,3.30
2023-01-17T13:05:30.700Z,3.50
2023-01-17T13:07:57.242Z,3.60
2023-01-17T13:10:23.763Z,3.90
2023-01-17T13:12:50.261Z,4.00
2023-01-17T13:15:17.337Z,3.90
2023-01-17T13:17:44.955Z,4.00
2023-01-17T13:20:11.742Z,3.80
2023-01-17T13:22:38.352Z,3.70
2023-01-17T13:25:04.882Z,3.60
2023-01-17T13:27:31.573Z,3.50
2023-01-17T13:29:58.088Z,3.40
2023-01-17T13:32:24.582Z,3.10
2023-01-17T13:34:51.099Z,3.00
2023-01-17T13:37:17.613Z,3.00
2023-01-17T13:39:44.110Z,3.10
2023-01-17T13:42:10.822Z,3.10
2023-01-17T13:44:37.376Z,3.10
2023-01-17T13:47:08.022Z,3.10
2023-01-17T13:49:34.579Z,3.20
2023-01-17T13:52:01.118Z,3.20
2023-01-17T13:54:27.646Z,3.20
2023-01-17T13:56:54.160Z,3.10
2023-01-17T13:59:20.727Z,3.10
2023-01-17T14:01:47.302Z,3.10
2023-01-17T14:04:13.896Z,3.00
2023-01-17T14:06:46.604Z,2.90
2023-01-17T14:09:13.098Z,2.90
2023-01-17T14:11:39.607Z,2.90
2023-01-17T14:14:06.170Z,2.80
2023-01-17T14:16:32.766Z,2.80
2023-01-17T14:18:59.251Z,2.70
2023-01-17T14:21:25.792Z,2.70
2023-01-17T14:23:52.291Z,2.70
2023-01-17T14:26:19.084Z,2.60
2023-01-17T14:28:45.594Z,2.60
2023-01-17T14:31:13.938Z,2.60
2023-01-17T14:33:40.608Z,2.50
2023-01-17T14:36:07.119Z,2.50
2023-01-17T14:38:33.640Z,2.50
2023-01-17T14:41:00.159Z,2.40
2023-01-17T14:43:27.452Z,2.40
2023-01-17T14:45:54.055Z,2.40
2023-01-17T14:48:20.585Z,2.30
2023-01-17T14:50:47.106Z,2.30
2023-01-17T14:53:13.789Z,2.30
2023-01-17T14:55:40.308Z,2.30
2023-01-17T14:58:06.868Z,2.20
2023-01-17T15:00:34.867Z,2.20
2023-01-17T15:03:02.173Z,2.20
2023-01-17T15:05:28.717Z,2.10
2023-01-17T15:07:55.198Z,2.10
2023-01-17T15:10:21.780Z,2.10
2023-01-17T15:12:48.413Z,2.00
2023-01-17T15:15:14.901Z,2.10
2023-01-17T15:17:41.410Z,2.10
2023-01-17T15:20:09.684Z,2.10
2023-01-17T15:22:39.098Z,2.00
2023-01-17T15:25:05.667Z,2.00
2023-01-17T15:27:32.192Z,2.00
2023-01-17T15:30:02.053Z,1.90
2023-01-17T15:32:31.100Z,1.80
2023-01-17T15:34:59.207Z,1.70
2023-01-17T15:37:25.716Z,1.60
2023-01-17T15:39:52.247Z,1.50
2023-01-17T15:42:18.915Z,1.50
2023-01-17T15:44:49.479Z,1.40
2023-01-17T15:47:16.116Z,1.30
2023-01-17T15:49:42.595Z,1.20
2023-01-17T15:52:09.075Z,1.00
2023-01-17T15:54:35.697Z,0.90
2023-01-17T15:57:02.188Z,0.80
2023-01-17T15:59:28.734Z,0.80
2023-01-17T16:01:55.636Z,0.70
2023-01-17T16:04:22.211Z,0.70
2023-01-17T16:06:48.711Z,0.70
2023-01-17T16:09:15.192Z,0.60
2023-01-17T16:11:41.702Z,0.60
2023-01-17T16:14:08.188Z,0.50
2023-01-17T16:16:34.687Z,0.50
2023-01-17T16:19:01.245Z,0.40
2023-01-17T16:21:27.984Z,0.40
2023-01-17T16:23:54.791Z,0.30
2023-01-17T16:26:21.351Z,0.30
2023-01-17T16:28:47.949Z,0.30
2023-01-17T16:31:14.562Z,0.20
2023-01-17T16:33:43.323Z,0.20
2023-01-17T16:36:09.811Z,0.10
2023-01-17T16:38:36.332Z,0.10
2023-01-17T16:41:02.815Z,0.10
2023-01-17T16:43:29.312Z,0.10
2023-01-17T16:45:55.915Z,0.10
2023-01-17T16:48:22.447Z,0.10
2023-01-17T16:50:50.469Z,0.10
2023-01-17T16:53:17.025Z,0.10
2023-01-17T16:55:43.502Z,0.00
2023-01-17T16:58:10.029Z,0.00
2023-01-17T17:00:36.525Z,-0.10
2023-01-17T17:03:03.048Z,-0.10
2023-01-17T17:05:30.539Z,-0.10
2023-01-17T17:07:57.596Z,-0.10
2023-01-17T17:10:27.502Z,-0.10
2023-01-17T17:12:54.118Z,-0.10
2023-01-17T17:15:21.434Z,-0.10
2023-01-17T17:17:48.178Z,0.00
2023-01-17T17:20:14.762Z,0.00
2023-01-17T17:22:42.864Z,-0.10
2023-01-17T17:25:09.365Z,0.00
2023-01-17T17:27:36.281Z,-0.10
2023-01-17T17:30:02.782Z,-0.10
2023-01-17T17:32:29.328Z,-0.10
2023-01-17T17:34:55.892Z,-0.10
2023-01-17T17:37:23.441Z,-0.10
2023-01-17T17:39:49.972Z,-0.10
2023-01-17T17:42:16.455Z,-0.10
2023-01-17T17:44:45.256Z,-0.10
2023-01-17T17:47:12.864Z,-0.10
2023-01-17T17:49:39.429Z,-0.20
2023-01-17T17:52:05.914Z,-0.20
2023-01-17T17:54:32.399Z,-0.20
2023-01-17T17:56:58.953Z,-0.20
2023-01-17T17:59:25.486Z,-0.20
2023-01-17T18:01:52.150Z,-0.30
2023-01-17T18:04:18.720Z,-0.30
2023-01-17T18:06:45.230Z,-0.30
2023-01-17T18:09:11.735Z,-0.30
2023-01-17T18:11:38.255Z,-0.30
2023-01-17T18:14:04.730Z,-0.30
2023-01-17T18:16:31.694Z,-0.30
2023-01-17T18:18:58.170Z,-0.40
2023-01-17T18:21:25.159Z,-0.40
2023-01-17T18:23:52.567Z,-0.40
2023-01-17T18:26:19.133Z,-0.40
2023-01-17T18:28:45.691Z,-0.40
2023-01-17T18:31:13.328Z,-0.40
2023-01-17T18:33:40.231Z,-0.40
2023-01-17T18:36:06.758Z,-0.30
2023-01-17T18:38:38.239Z,-0.30
2023-01-17T18:41:04.741Z,-0.30
2023-01-17T18:43:31.593Z,-0.30
2023-01-17T18:45:58.080Z,-0.30
2023-01-17T18:48:24.603Z,-0.20
2023-01-17T18:50:51.096Z,-0.30
2023-01-17T18:53:17.579Z,-0.20
2023-01-17T18:55:44.058Z,-0.30
2023-01-17T18:58:10.545Z,-0.30
2023-01-17T19:00:37.115Z,-0.30
2023-01-17T19:03:03.737Z,-0.30
2023-01-17T19:05:30.236Z,-0.30
2023-01-17T19:07:57.084Z,-0.40
2023-01-17T19:10:23.739Z,-0.40
2023-01-17T19:12:50.268Z,-0.40
2023-01-17T19:15:16.763Z,-0.50
2023-01-17T19:17:43.273Z,-0.50
2023-01-17T19:20:09.756Z,-0.50
2023-01-17T19:22:36.244Z,-0.50
2023-01-17T19:25:02.825Z,-0.60
2023-01-17T19:27:29.352Z,-0.60
2023-01-17T19:29:55.858Z,-0.60
2023-01-17T19:32:22.353Z,-0.60
2023-01-17T19:34:48.836Z,-0.60
2023-01-17T19:37:15.358Z,-0.70
2023-01-17T19:39:41.857Z,-0.70
2023-01-17T19:42:15.250Z,-0.70
2023-01-17T19:44:41.727Z,-0.80
2023-01-17T19:47:10.699Z,-0.70
2023-01-17T19:49:39.707Z,-0.70
2023-01-17T19:52:06.183Z,-0.80
2023-01-17T19:54:32.868Z,-0.80
2023-01-17T19:56:59.469Z,-0.70
2023-01-17T19:59:25.953Z,-0.70
2023-01-17T20:01:52.693Z,-0.80
2023-01-17T20:04:19.382Z,-0.80
2023-01-17T20:06:46.012Z,-0.90
2023-01-17T20:09:12.503Z,-0.90
2023-01-17T20:11:42.032Z,-0.90
2023-01-17T20:14:08.564Z,-0.90
2023-01-17T20:16:35.118Z,-1.00
2023-01-17T20:19:02.580Z,-0.90
2023-01-17T20:21:29.390Z,-0.90
2023-01-17T20:23:55.911Z,-1.00
2023-01-17T20:26:22.501Z,-0.90
2023-01-17T20:28:49.348Z,-0.90
2023-01-17T20:31:16.080Z,-0.90
2023-01-17T20:33:43.058Z,-0.90
2023-01-17T20:36:11.028Z,-0.90
2023-01-17T20:38:43.900Z,-1.00
2023-01-17T20:41:10.434Z,-0.90
2023-01-17T20:43:37.638Z,-0.90
2023-01-17T20:46:04.758Z,-0.90
2023-01-17T20:48:33.523Z,-1.00
2023-01-17T20:51:00.105Z,-0.90
2023-01-17T20:53:26.609Z,-0.90
2023-01-17T20:55:53.112Z,-0.90
2023-01-17T20:58:19.611Z,-1.00
2023-01-17T21:00:46.134Z,-1.00
2023-01-17T21:03:12.708Z,-1.00
2023-01-17T21:05:39.216Z,-1.10
2023-01-17T21:08:05.717Z,-1.00
2023-01-17T21:10:32.353Z,-1.00
2023-01-17T21:12:59.595Z,-1.00
2023-01-17T21:15:26.154Z,-1.00
2023-01-17T21:17:52.666Z,-1.00
2023-01-17T21:20:19.174Z,-1.10
2023-01-17T21:22:45.852Z,-1.10
2023-01-17T21:25:12.418Z,-1.10
2023-01-17T21:27:39.025Z,-1.20
2023-01-17T21:30:05.521Z,-1.20
2023-01-17T21:32:32.075Z,-1.20
2023-01-17T21:34:58.575Z,-1.20
2023-01-17T21:37:25.085Z,-1.20
2023-01-17T21:39:54.700Z,-1.30
2023-01-17T21:42:21.202Z,-1.30
2023-01-17T21:44:47.667Z,-1.30
2023-01-17T21:47:14.179Z,-1.30
2023-01-17T21:49:40.739Z,-1.20
2023-01-17T21:52:07.270Z,-1.30
2023-01-17T21:54:52.651Z,-1.30
2023-01-17T21:57:37.778Z,-1.30
2023-01-17T22:00:04.262Z,-1.30
2023-01-17T22:02:30.808Z,-1.30
2023-01-17T22:04:57.332Z,-1.30
2023-01-17T22:07:26.909Z,-1.40
2023-01-17T22:09:54.062Z,-1.40
2023-01-17T22:12:20.583Z,-1.40
2023-01-17T22:14:47.096Z,-1.50
2023-01-17T22:17:13.604Z,-1.50
2023-01-17T22:19:40.086Z,-1.60
2023-01-17T22:22:06.582Z,-1.60
2023-01-17T22:24:33.044Z,-1.60
2023-01-17T22:26:59.585Z,-1.60
2023-01-17T22:29:26.071Z,-1.60
2023-01-17T22:31:52.542Z,-1.60
2023-01-17T22:34:19.117Z,-1.60
2023-01-17T22:36:45.697Z,-1.60
2023-01-17T22:39:12.205Z,-1.60
2023-01-17T22:41:38.715Z,-1.60
2023-01-17T22:44:05.397Z,-1.70
2023-01-17T22:46:32.040Z,-1.70
2023-01-17T22:48:58.555Z,-1.70
2023-01-17T22:51:25.093Z,-1.80
2023-01-17T22:53:51.578Z,-1.90
2023-01-17T22:56:18.100Z,-2.00
2023-01-17T22:58:44.827Z,-2.00
2023-01-17T23:01:11.521Z,-2.00
2023-01-17T23:03:38.166Z,-2.00
2023-01-17T23:06:04.736Z,-2.10
2023-01-17T23:08:31.236Z,-2.10
2023-01-17T23:11:16.532Z,-2.10
2023-01-17T23:13:43.099Z,-2.10
2023-01-17T23:16:28.364Z,-2.10
2023-01-17T23:19:13.670Z,-2.10
2023-01-17T23:21:58.864Z,-2.10
2023-01-17T23:24:25.381Z,-2.10
2023-01-17T23:27:10.649Z,-2.00
2023-01-17T23:29:37.150Z,-2.00
2023-01-17T23:32:03.643Z,-2.00
2023-01-17T23:34:30.149Z,-2.00
2023-01-17T23:36:56.644Z,-2.00
2023-01-17T23:39:23.163Z,-1.90
2023-01-17T23:42:08.608Z,-2.00
2023-01-17T23:44:35.110Z,-2.00
2023-01-17T23:47:01.670Z,-1.90
2023-01-17T23:49:29.552Z,-1.90
2023-01-17T23:51:56.100Z,-1.90
2023-01-17T23:54:22.601Z,-1.90
2023-01-17T23:56:49.167Z,-1.90
2023-01-17T23:59:15.648Z,-1.90
